createdAt,value
2022-10-25T00:00:27.629Z,189.77
2022-10-25T00:02:55.482Z,184.43
2022-10-25T00:05:23.326Z,163.53
2022-10-25T00:07:51.130Z,186.70
2022-10-25T00:10:21.132Z,169.33
2022-10-25T00:12:54.206Z,180.03
2022-10-25T00:15:22.583Z,168.27
2022-10-25T00:17:52.435Z,175.70
2022-10-25T00:20:21.168Z,163.43
2022-10-25T00:22:50.022Z,173.53
2022-10-25T00:25:18.227Z,162.13
2022-10-25T00:27:47.899Z,165.37
2022-10-25T00:30:16.330Z,179.03
2022-10-25T00:32:44.380Z,160.20
2022-10-25T00:35:13.939Z,160.40
2022-10-25T00:37:41.834Z,182.97
2022-10-25T00:40:10.975Z,162.57
2022-10-25T00:42:39.417Z,151.73
2022-10-25T00:45:21.295Z,164.70
2022-10-25T00:47:53.615Z,152.63
2022-10-25T00:50:33.057Z,170.00
2022-10-25T00:53:09.584Z,156.27
2022-10-25T00:55:42.362Z,151.20
2022-10-25T00:58:15.687Z,160.80
2022-10-25T01:00:46.498Z,160.47
2022-10-25T01:03:16.046Z,176.60
2022-10-25T01:05:46.276Z,167.43
2022-10-25T01:08:16.259Z,181.10
2022-10-25T01:10:44.660Z,163.43
2022-10-25T01:13:13.151Z,174.37
2022-10-25T01:15:51.924Z,187.87
2022-10-25T01:18:32.430Z,193.10
2022-10-25T01:21:48.270Z,209.20
2022-10-25T01:24:49.775Z,244.40
2022-10-25T01:27:53.132Z,236.30
2022-10-25T01:30:23.785Z,276.40
2022-10-25T01:33:09.666Z,226.30
2022-10-25T01:35:49.167Z,263.77
2022-10-25T01:38:26.226Z,205.80
2022-10-25T01:41:07.147Z,209.77
2022-10-25T01:43:43.554Z,254.23
2022-10-25T01:46:17.559Z,207.53
2022-10-25T01:48:49.720Z,174.80
2022-10-25T01:51:19.080Z,173.43
2022-10-25T01:53:50.015Z,170.33
2022-10-25T01:56:26.746Z,167.40
2022-10-25T01:59:19.873Z,163.60
2022-10-25T02:02:01.664Z,199.23
2022-10-25T02:04:41.570Z,182.93
2022-10-25T02:07:13.447Z,172.33
2022-10-25T02:09:51.063Z,167.17
2022-10-25T02:12:26.339Z,176.40
2022-10-25T02:15:05.185Z,201.20
2022-10-25T02:17:35.075Z,264.60
2022-10-25T02:20:08.558Z,248.57
2022-10-25T02:22:38.820Z,183.43
2022-10-25T02:25:09.722Z,178.30
2022-10-25T02:27:40.619Z,161.63
2022-10-25T02:30:09.608Z,149.53
2022-10-25T02:32:37.671Z,166.33
2022-10-25T02:37:40.889Z,176.83
2022-10-25T02:40:10.219Z,149.23
2022-10-25T02:42:38.054Z,151.30
2022-10-25T02:45:06.859Z,155.43
2022-10-25T02:47:34.903Z,165.50
2022-10-25T02:50:02.723Z,144.77
2022-10-25T02:52:32.231Z,135.20
2022-10-25T02:55:00.051Z,150.70
2022-10-25T02:57:33.703Z,161.13
2022-10-25T03:00:01.571Z,150.97
2022-10-25T03:02:30.849Z,161.57
2022-10-25T03:04:58.940Z,184.17
2022-10-25T03:07:26.812Z,161.43
2022-10-25T03:09:57.035Z,153.40
2022-10-25T03:12:25.092Z,145.10
2022-10-25T03:14:53.307Z,148.43
2022-10-25T03:17:21.086Z,143.93
2022-10-25T03:19:49.080Z,139.73
2022-10-25T03:22:16.910Z,137.33
2022-10-25T03:24:44.719Z,141.37
2022-10-25T03:27:13.863Z,155.20
2022-10-25T03:29:41.653Z,137.57
2022-10-25T03:32:09.468Z,135.30
2022-10-25T03:34:37.248Z,129.93
2022-10-25T03:37:05.079Z,137.40
2022-10-25T03:39:32.874Z,149.03
2022-10-25T03:42:00.644Z,160.83
2022-10-25T03:44:29.795Z,142.67
2022-10-25T03:46:57.563Z,138.77
2022-10-25T03:49:26.135Z,159.67
2022-10-25T03:51:57.066Z,142.10
2022-10-25T03:54:29.279Z,138.23
2022-10-25T03:56:57.285Z,147.77
2022-10-25T03:59:25.203Z,142.83
2022-10-25T04:01:54.877Z,130.17
2022-10-25T04:04:22.764Z,136.00
2022-10-25T04:06:50.619Z,139.30
2022-10-25T04:09:18.543Z,136.83
2022-10-25T04:11:46.320Z,153.57
2022-10-25T04:14:14.077Z,142.30
2022-10-25T04:16:41.890Z,162.80
2022-10-25T04:19:11.030Z,154.60
2022-10-25T04:21:38.868Z,142.97
2022-10-25T04:24:07.267Z,160.13
2022-10-25T04:26:37.223Z,161.70
2022-10-25T04:29:06.362Z,163.87
2022-10-25T04:31:35.236Z,160.77
2022-10-25T04:34:02.981Z,172.87
2022-10-25T04:36:32.417Z,133.13
2022-10-25T04:39:00.337Z,149.47
2022-10-25T04:41:30.411Z,155.70
2022-10-25T04:43:58.199Z,155.27
2022-10-25T04:46:25.974Z,164.67
2022-10-25T04:48:53.840Z,165.83
2022-10-25T04:51:21.629Z,165.83
2022-10-25T04:53:51.062Z,166.20
2022-10-25T04:56:18.841Z,135.07
2022-10-25T04:58:46.756Z,130.83
2022-10-25T05:01:17.202Z,154.27
2022-10-25T05:03:45.152Z,136.83
2022-10-25T05:06:16.024Z,127.30
2022-10-25T05:08:45.604Z,144.00
2022-10-25T05:11:16.245Z,138.70
2022-10-25T05:13:45.875Z,150.67
2022-10-25T05:16:16.943Z,139.27
2022-10-25T05:18:46.256Z,131.30
2022-10-25T05:21:15.112Z,145.67
2022-10-25T05:23:43.780Z,138.57
2022-10-25T05:26:14.971Z,155.23
2022-10-25T05:28:44.179Z,133.37
2022-10-25T05:31:15.791Z,146.73
2022-10-25T05:33:45.156Z,131.40
2022-10-25T05:36:13.869Z,152.87
2022-10-25T05:38:41.918Z,139.10
2022-10-25T05:41:11.776Z,134.67
2022-10-25T05:43:41.293Z,140.27
2022-10-25T05:46:11.329Z,163.57
2022-10-25T05:48:40.265Z,141.40
2022-10-25T05:51:33.422Z,140.83
2022-10-25T05:54:03.886Z,133.13
2022-10-25T05:56:33.123Z,147.57
2022-10-25T05:59:08.544Z,154.63
2022-10-25T06:01:37.418Z,141.23
2022-10-25T06:04:06.012Z,139.60
2022-10-25T06:06:34.014Z,146.00
2022-10-25T06:09:02.601Z,132.50
2022-10-25T06:11:31.058Z,153.50
2022-10-25T06:13:58.815Z,128.57
2022-10-25T06:16:28.036Z,149.73
2022-10-25T06:18:55.888Z,170.90
2022-10-25T06:21:25.296Z,145.30
2022-10-25T06:23:53.997Z,141.37
2022-10-25T06:26:24.230Z,146.00
2022-10-25T06:28:53.828Z,136.30
2022-10-25T06:31:21.725Z,156.77
2022-10-25T06:33:51.152Z,127.07
2022-10-25T06:36:20.887Z,167.23
2022-10-25T06:38:49.748Z,138.83
2022-10-25T06:41:19.163Z,133.53
2022-10-25T06:43:47.271Z,149.80
2022-10-25T06:46:20.930Z,128.40
2022-10-25T06:48:49.123Z,153.07
2022-10-25T06:51:18.582Z,144.40
2022-10-25T06:53:46.655Z,133.93
2022-10-25T06:56:15.440Z,151.50
2022-10-25T06:58:43.518Z,144.03
2022-10-25T07:01:14.070Z,133.27
2022-10-25T07:03:42.967Z,159.27
2022-10-25T07:06:12.387Z,150.13
2022-10-25T07:08:42.888Z,144.30
2022-10-25T07:11:15.123Z,138.90
2022-10-25T07:13:43.087Z,149.17
2022-10-25T07:16:13.280Z,148.03
2022-10-25T07:18:41.212Z,139.23
2022-10-25T07:21:11.773Z,150.53
2022-10-25T07:23:42.911Z,158.37
2022-10-25T07:26:12.238Z,141.23
2022-10-25T07:28:40.704Z,154.97
2022-10-25T07:31:08.979Z,161.60
2022-10-25T07:33:36.829Z,145.73
2022-10-25T07:36:10.827Z,137.17
2022-10-25T07:38:41.100Z,138.87
2022-10-25T07:41:09.096Z,145.73
2022-10-25T07:43:37.446Z,153.07
2022-10-25T07:46:05.792Z,132.57
2022-10-25T07:48:34.310Z,208.53
2022-10-25T07:51:05.307Z,201.47
2022-10-25T07:53:33.277Z,150.73
2022-10-25T07:56:02.705Z,960.97
2022-10-25T07:58:30.463Z,946.10
2022-10-25T08:01:02.669Z,910.70
2022-10-25T08:03:30.833Z,1769.67
2022-10-25T08:05:58.731Z,826.37
2022-10-25T08:08:27.159Z,1830.00
2022-10-25T08:10:55.266Z,1429.57
2022-10-25T08:13:26.309Z,1316.53
2022-10-25T08:15:56.754Z,1619.97
2022-10-25T08:18:25.460Z,2266.67
2022-10-25T08:21:08.513Z,2266.67
2022-10-25T08:23:36.281Z,2266.67
2022-10-25T08:26:04.525Z,2266.67
2022-10-25T08:28:33.819Z,2266.67
2022-10-25T08:31:02.566Z,2266.67
2022-10-25T08:33:31.449Z,2266.67
2022-10-25T08:36:01.886Z,2266.67
2022-10-25T08:38:29.808Z,2266.67
2022-10-25T08:41:04.229Z,2266.67
2022-10-25T08:44:03.156Z,2266.67
2022-10-25T08:46:34.125Z,2266.67
2022-10-25T08:49:11.361Z,2266.67
2022-10-25T08:51:41.487Z,2266.67
2022-10-25T08:54:21.358Z,2266.67
2022-10-25T08:57:10.701Z,2266.67
2022-10-25T08:59:44.161Z,2266.67
2022-10-25T09:02:19.243Z,2266.67
2022-10-25T09:04:47.612Z,2266.67
2022-10-25T09:07:36.441Z,2266.67
2022-10-25T09:10:18.575Z,2266.67
2022-10-25T09:12:53.272Z,2266.67
2022-10-25T09:15:42.828Z,2266.67
2022-10-25T09:18:17.280Z,2266.67
2022-10-25T09:20:50.758Z,2266.67
2022-10-25T09:23:27.881Z,2266.67
2022-10-25T09:26:03.899Z,2266.67
2022-10-25T09:28:45.244Z,2266.67
2022-10-25T09:31:19.365Z,2266.67
2022-10-25T09:33:48.736Z,2266.67
2022-10-25T09:36:16.509Z,2266.67
2022-10-25T09:38:49.963Z,2266.67
2022-10-25T09:41:23.694Z,2266.67
2022-10-25T09:43:57.678Z,2266.67
2022-10-25T09:46:36.394Z,2266.67
2022-10-25T09:49:14.511Z,2266.67
2022-10-25T09:51:57.587Z,2266.67
2022-10-25T09:54:31.958Z,2266.67
2022-10-25T09:57:00.031Z,2266.67
2022-10-25T09:59:28.795Z,2266.67
2022-10-25T10:01:57.957Z,2266.67
2022-10-25T10:04:31.444Z,2266.67
2022-10-25T10:07:07.724Z,2266.67
2022-10-25T10:09:41.043Z,2266.67
2022-10-25T10:12:18.880Z,2266.67
2022-10-25T10:14:54.649Z,2266.67
2022-10-25T10:17:25.164Z,2266.67
2022-10-25T10:20:15.022Z,2266.67
2022-10-25T10:25:25.657Z,2266.67
2022-10-25T10:27:55.339Z,2266.67
2022-10-25T10:30:29.736Z,2266.67
2022-10-25T10:33:01.143Z,2266.67
2022-10-25T10:35:34.455Z,2266.67
2022-10-25T10:38:20.366Z,2266.67
2022-10-25T10:40:50.844Z,2266.67
2022-10-25T10:43:29.654Z,2266.67
2022-10-25T10:46:03.191Z,2266.67
2022-10-25T10:48:41.825Z,2266.67
2022-10-25T10:51:25.255Z,2266.67
2022-10-25T10:53:59.791Z,2266.67
2022-10-25T10:56:30.637Z,2266.67
2022-10-25T10:58:58.495Z,2266.67
2022-10-25T11:01:32.855Z,2266.67
2022-10-25T11:04:03.320Z,2266.67
2022-10-25T11:06:33.423Z,2266.67
2022-10-25T11:09:20.309Z,2266.67
2022-10-25T11:12:07.584Z,2266.67
2022-10-25T11:14:35.582Z,2266.67
2022-10-25T11:17:09.445Z,2266.67
2022-10-25T11:19:49.740Z,2266.67
2022-10-25T11:22:51.065Z,2266.67
2022-10-25T11:25:32.623Z,2266.67
2022-10-25T11:28:26.692Z,2266.67
2022-10-25T11:31:02.529Z,2266.67
2022-10-25T11:33:44.254Z,2266.67
2022-10-25T11:36:40.091Z,2266.67
2022-10-25T11:39:22.835Z,2266.67
2022-10-25T11:41:53.075Z,2266.67
2022-10-25T11:44:45.780Z,2266.67
2022-10-25T11:47:27.296Z,2266.67
2022-10-25T11:50:04.370Z,2266.67
2022-10-25T11:52:56.845Z,2266.67
2022-10-25T11:55:33.454Z,2266.67
2022-10-25T11:58:16.618Z,2266.67
2022-10-25T12:00:55.337Z,2266.67
2022-10-25T12:03:35.845Z,2266.67
2022-10-25T12:06:15.163Z,2266.67
2022-10-25T12:08:52.166Z,2266.67
2022-10-25T12:11:25.342Z,2266.67
2022-10-25T12:13:57.119Z,2266.67
2022-10-25T12:16:26.518Z,2266.67
2022-10-25T12:19:05.787Z,2266.67
2022-10-25T12:21:43.999Z,2266.67
2022-10-25T12:24:20.519Z,2266.67
2022-10-25T12:26:52.122Z,2266.67
2022-10-25T12:29:25.421Z,2266.67
2022-10-25T12:31:57.855Z,2266.67
2022-10-25T12:34:34.071Z,2266.67
2022-10-25T12:37:05.870Z,2266.67
2022-10-25T12:39:40.761Z,2266.67
2022-10-25T12:42:14.556Z,2266.67
2022-10-25T12:45:09.706Z,2266.67
2022-10-25T12:47:49.732Z,2266.67
2022-10-25T12:50:34.709Z,2266.67
2022-10-25T12:53:40.615Z,2266.67
2022-10-25T12:56:21.119Z,2266.67
2022-10-25T12:59:00.347Z,2266.67
2022-10-25T13:01:39.500Z,2266.67
2022-10-25T13:04:37.006Z,2266.67
2022-10-25T13:07:06.761Z,2266.67
2022-10-25T13:09:37.033Z,2266.67
2022-10-25T13:12:08.764Z,2266.67
2022-10-25T13:14:39.248Z,2266.67
2022-10-25T13:17:43.604Z,2266.67
2022-10-25T13:20:46.332Z,2266.67
2022-10-25T13:23:58.400Z,2266.67
2022-10-25T13:26:46.444Z,2266.67
2022-10-25T13:29:47.828Z,2266.67
2022-10-25T13:32:18.665Z,2266.67
2022-10-25T13:34:46.808Z,2266.67
2022-10-25T13:37:40.768Z,2266.67
2022-10-25T13:40:20.595Z,2266.67
2022-10-25T13:42:57.881Z,2266.67
2022-10-25T13:45:35.559Z,2266.67
2022-10-25T13:48:25.957Z,2266.67
2022-10-25T13:50:55.937Z,2266.67
2022-10-25T13:53:26.055Z,2266.67
2022-10-25T13:56:03.994Z,2266.67
2022-10-25T13:58:45.198Z,2266.67
2022-10-25T14:01:58.270Z,2266.67
2022-10-25T14:04:39.212Z,2266.67
2022-10-25T14:07:44.730Z,2266.67
2022-10-25T14:10:27.900Z,2266.67
2022-10-25T14:13:08.139Z,2266.67
2022-10-25T14:15:46.425Z,2266.67
2022-10-25T14:18:20.251Z,2266.67
2022-10-25T14:20:53.671Z,2266.67
2022-10-25T14:23:23.930Z,2266.67
2022-10-25T14:25:55.221Z,2266.67
2022-10-25T14:28:25.102Z,2266.67
2022-10-25T14:30:55.723Z,2266.67
2022-10-25T14:33:30.270Z,2266.67
2022-10-25T14:36:09.883Z,2266.67
2022-10-25T14:38:53.603Z,2266.67
2022-10-25T14:41:24.900Z,2266.67
2022-10-25T14:43:56.471Z,2266.67
2022-10-25T14:46:26.838Z,2266.67
2022-10-25T14:48:57.860Z,2266.67
2022-10-25T14:51:30.135Z,2266.67
2022-10-25T14:54:02.568Z,2266.67
2022-10-25T14:56:38.941Z,2266.67
2022-10-25T14:59:21.357Z,2266.67
2022-10-25T15:01:57.717Z,2266.67
2022-10-25T15:04:33.122Z,2266.67
2022-10-25T15:07:03.766Z,2266.67
2022-10-25T15:09:49.006Z,2266.67
2022-10-25T15:12:20.614Z,2266.67
2022-10-25T15:14:49.861Z,2266.67
2022-10-25T15:17:28.746Z,2266.67
2022-10-25T15:20:02.697Z,2266.67
2022-10-25T15:22:34.636Z,2266.67
2022-10-25T15:25:03.344Z,2266.67
2022-10-25T15:27:41.884Z,2266.67
2022-10-25T15:30:34.356Z,2266.67
2022-10-25T15:33:02.618Z,2266.67
2022-10-25T15:35:33.806Z,2266.67
2022-10-25T15:38:03.254Z,2266.67
2022-10-25T15:40:31.418Z,2266.67
2022-10-25T15:43:00.871Z,2266.67
2022-10-25T15:45:29.905Z,2266.67
2022-10-25T15:47:59.482Z,2266.67
2022-10-25T15:50:29.047Z,2266.67
2022-10-25T15:52:58.284Z,2266.67
2022-10-25T15:55:33.218Z,2266.67
2022-10-25T15:58:10.590Z,2266.67
2022-10-25T16:00:41.157Z,2266.67
2022-10-25T16:03:10.106Z,2266.67
2022-10-25T16:05:40.253Z,2266.67
2022-10-25T16:08:09.142Z,2266.67
2022-10-25T16:10:39.834Z,2266.67
2022-10-25T16:13:16.199Z,2266.67
2022-10-25T16:15:44.436Z,2266.67
2022-10-25T16:18:12.524Z,2266.67
2022-10-25T16:20:40.337Z,2266.67
2022-10-25T16:23:08.192Z,2266.67
2022-10-25T16:25:36.125Z,2266.67
2022-10-25T16:28:07.253Z,2266.67
2022-10-25T16:30:36.664Z,2266.67
2022-10-25T16:33:06.503Z,2266.67
2022-10-25T16:35:35.374Z,2266.67
2022-10-25T16:38:04.639Z,2266.67
2022-10-25T16:40:33.286Z,2266.67
2022-10-25T16:43:02.940Z,2266.67
2022-10-25T16:45:39.932Z,2266.67
2022-10-25T16:48:09.166Z,2266.67
2022-10-25T16:50:38.691Z,2266.67
2022-10-25T16:53:09.590Z,2266.67
2022-10-25T16:55:38.137Z,2266.67
2022-10-25T16:58:06.982Z,2266.67
2022-10-25T17:00:37.069Z,2266.67
2022-10-25T17:03:09.174Z,2266.67
2022-10-25T17:05:39.526Z,2266.67
2022-10-25T17:08:08.154Z,2266.67
2022-10-25T17:10:42.477Z,2266.67
2022-10-25T17:13:16.095Z,2266.67
2022-10-25T17:15:46.794Z,1849.90
2022-10-25T17:18:21.085Z,1836.87
2022-10-25T17:20:50.246Z,2266.67
2022-10-25T17:23:18.101Z,2266.67
2022-10-25T17:25:47.177Z,1806.27
2022-10-25T17:28:17.490Z,736.87
2022-10-25T17:30:48.541Z,1114.33
2022-10-25T17:33:17.377Z,1162.20
2022-10-25T17:35:46.145Z,1155.10
2022-10-25T17:38:14.753Z,1134.20
2022-10-25T17:40:45.704Z,1090.80
2022-10-25T17:43:16.000Z,1194.53
2022-10-25T17:45:46.493Z,1269.50
2022-10-25T17:48:15.421Z,1395.10
2022-10-25T17:50:45.574Z,1296.23
2022-10-25T17:53:13.416Z,1378.57
2022-10-25T17:55:41.303Z,1562.30
2022-10-25T17:58:09.220Z,1590.13
2022-10-25T18:00:36.995Z,1758.67
2022-10-25T18:03:06.734Z,1543.47
2022-10-25T18:05:34.585Z,1344.17
2022-10-25T18:08:02.365Z,1339.47
2022-10-25T18:10:30.145Z,1309.67
2022-10-25T18:12:57.917Z,1316.00
2022-10-25T18:15:25.700Z,2080.97
2022-10-25T18:17:53.485Z,1798.97
2022-10-25T18:20:25.170Z,2009.37
2022-10-25T18:22:55.396Z,1965.77
2022-10-25T18:25:23.233Z,1922.13
2022-10-25T18:27:51.418Z,2027.50
2022-10-25T18:30:19.466Z,2069.27
2022-10-25T18:32:47.467Z,1992.90
2022-10-25T18:35:15.353Z,1468.00
2022-10-25T18:37:44.500Z,1287.10
2022-10-25T18:40:14.283Z,1882.10
2022-10-25T18:42:42.046Z,1933.53
2022-10-25T18:45:10.136Z,1842.87
2022-10-25T18:47:37.944Z,1829.87
2022-10-25T18:50:06.834Z,1765.97
2022-10-25T18:52:35.286Z,1915.93
2022-10-25T18:55:05.222Z,2005.27
2022-10-25T18:57:33.019Z,1252.97
2022-10-25T19:00:00.747Z,2071.47
2022-10-25T19:02:28.652Z,1987.57
2022-10-25T19:04:56.545Z,1722.20
2022-10-25T19:07:24.455Z,1803.60
2022-10-25T19:09:52.675Z,1698.77
2022-10-25T19:12:21.799Z,1438.53
2022-10-25T19:14:49.695Z,1934.40
2022-10-25T19:17:17.454Z,1106.07
2022-10-25T19:19:45.555Z,1908.17
2022-10-25T19:22:15.180Z,1264.23
2022-10-25T19:24:43.438Z,1413.73
2022-10-25T19:27:11.853Z,1423.97
2022-10-25T19:29:41.959Z,1783.20
2022-10-25T19:32:10.220Z,1972.50
2022-10-25T19:34:38.625Z,1577.83
2022-10-25T19:37:08.999Z,1698.47
2022-10-25T19:39:38.045Z,1426.50
2022-10-25T19:42:06.294Z,1391.97
2022-10-25T19:44:34.310Z,1774.10
2022-10-25T19:47:03.461Z,1866.97
2022-10-25T19:49:31.392Z,1778.00
2022-10-25T19:51:59.218Z,2000.43
2022-10-25T19:54:27.044Z,1783.30
2022-10-25T19:56:55.326Z,1710.13
2022-10-25T19:59:23.175Z,1665.73
2022-10-25T20:01:51.789Z,1786.73
2022-10-25T20:04:21.861Z,1685.13
2022-10-25T20:06:50.003Z,1689.00
2022-10-25T20:09:17.784Z,1611.10
2022-10-25T20:11:45.731Z,1492.00
2022-10-25T20:14:13.783Z,1568.57
2022-10-25T20:16:41.554Z,1581.57
2022-10-25T20:19:13.276Z,1586.77
2022-10-25T20:21:42.663Z,1524.47
2022-10-25T20:24:10.926Z,1440.13
2022-10-25T20:26:40.710Z,1450.20
2022-10-25T20:29:17.035Z,1490.73
2022-10-25T20:31:48.085Z,1430.77
2022-10-25T20:34:16.221Z,1476.97
2022-10-25T20:36:46.515Z,1523.17
2022-10-25T20:39:15.051Z,1467.20
2022-10-25T20:41:42.818Z,1450.83
2022-10-25T20:44:11.169Z,1481.27
2022-10-25T20:46:38.965Z,1552.20
2022-10-25T20:49:08.879Z,1569.67
2022-10-25T20:51:37.937Z,1460.43
2022-10-25T20:54:09.582Z,1490.57
2022-10-25T20:56:39.210Z,1504.53
2022-10-25T20:59:07.445Z,1544.07
2022-10-25T21:01:35.416Z,1590.87
2022-10-25T21:04:03.493Z,1511.53
2022-10-25T21:06:31.297Z,1578.50
2022-10-25T21:08:59.048Z,1444.33
2022-10-25T21:11:29.092Z,1449.27
2022-10-25T21:13:56.920Z,1484.03
2022-10-25T21:16:24.677Z,1510.57
2022-10-25T21:18:52.411Z,1484.93
2022-10-25T21:21:21.168Z,1441.30
2022-10-25T21:23:49.215Z,1442.00
2022-10-25T21:26:17.219Z,1416.93
2022-10-25T21:28:46.298Z,1542.40
2022-10-25T21:31:16.776Z,1418.67
2022-10-25T21:33:49.845Z,1419.70
2022-10-25T21:36:19.994Z,1436.03
2022-10-25T21:38:48.911Z,1572.47
2022-10-25T21:41:19.784Z,1468.40
2022-10-25T21:43:50.593Z,1483.00
2022-10-25T21:46:20.613Z,1390.63
2022-10-25T21:48:50.730Z,1317.83
2022-10-25T21:51:19.526Z,1394.90
2022-10-25T21:53:48.503Z,1506.33
2022-10-25T21:56:18.401Z,1505.67
2022-10-25T21:58:51.078Z,1394.60
2022-10-25T22:01:21.183Z,1487.73
2022-10-25T22:03:49.728Z,1415.13
2022-10-25T22:06:19.967Z,1422.37
2022-10-25T22:08:48.769Z,1352.50
2022-10-25T22:11:19.234Z,1414.47
2022-10-25T22:13:49.401Z,1410.87
2022-10-25T22:16:19.057Z,1412.33
2022-10-25T22:18:50.146Z,1257.63
2022-10-25T22:21:17.952Z,1309.30
2022-10-25T22:23:45.772Z,1381.87
2022-10-25T22:26:16.755Z,1394.43
2022-10-25T22:28:44.523Z,1423.63
2022-10-25T22:31:15.260Z,1386.73
2022-10-25T22:33:44.086Z,1334.00
2022-10-25T22:36:13.824Z,1320.53
2022-10-25T22:38:42.141Z,1289.67
2022-10-25T22:41:12.157Z,1335.83
2022-10-25T22:43:40.645Z,1377.57
2022-10-25T22:46:12.380Z,1372.90
2022-10-25T22:48:43.370Z,1349.43
2022-10-25T22:51:12.275Z,1255.40
2022-10-25T22:53:41.094Z,1400.93
2022-10-25T22:56:11.956Z,1397.03
2022-10-25T22:58:41.306Z,1346.10
2022-10-25T23:01:11.396Z,1245.17
2022-10-25T23:03:41.882Z,1165.70
2022-10-25T23:06:12.849Z,1236.97
2022-10-25T23:08:41.050Z,1264.33
2022-10-25T23:11:15.667Z,1277.67
2022-10-25T23:13:46.011Z,1198.13
2022-10-25T23:16:17.016Z,1175.80
2022-10-25T23:18:46.610Z,1134.60
2022-10-25T23:21:17.944Z,1093.57
2022-10-25T23:23:46.449Z,1050.53
2022-10-25T23:26:20.329Z,1035.63
2022-10-25T23:28:48.978Z,928.97
2022-10-25T23:31:17.143Z,815.67
2022-10-25T23:33:50.551Z,626.97
2022-10-25T23:36:20.346Z,465.20
2022-10-25T23:38:49.456Z,441.10
2022-10-25T23:41:17.909Z,403.13
2022-10-25T23:43:45.682Z,427.73
2022-10-25T23:46:14.001Z,362.23
2022-10-25T23:48:41.944Z,225.23
2022-10-25T23:51:12.870Z,191.90
2022-10-25T23:53:40.818Z,184.30
2022-10-25T23:56:11.962Z,177.03
2022-10-25T23:58:40.540Z,148.43
